createdAt,value
2022-09-18T00:00:02.435Z,1006.76
2022-09-18T00:01:02.657Z,1006.75
2022-09-18T00:02:02.087Z,1006.77
2022-09-18T00:03:01.868Z,1006.76
2022-09-18T00:04:01.609Z,1006.79
2022-09-18T00:05:01.462Z,1006.82
2022-09-18T00:06:01.623Z,1006.78
2022-09-18T00:07:02.676Z,1006.77
2022-09-18T00:08:02.241Z,1006.78
2022-09-18T00:09:02.759Z,1006.82
2022-09-18T00:10:02.445Z,1006.84
2022-09-18T00:11:02.064Z,1006.80
2022-09-18T00:12:01.337Z,1006.85
2022-09-18T00:13:01.777Z,1006.79
2022-09-18T00:14:01.783Z,1006.75
2022-09-18T00:15:01.765Z,1006.79
2022-09-18T00:16:01.773Z,1006.81
2022-09-18T00:17:04.738Z,1006.80
2022-09-18T00:18:01.622Z,1006.80
2022-09-18T00:19:01.906Z,1006.79
2022-09-18T00:20:01.545Z,1006.81
2022-09-18T00:21:01.714Z,1006.83
2022-09-18T00:22:02.066Z,1006.80
2022-09-18T00:23:02.028Z,1006.80
2022-09-18T00:24:02.567Z,1006.74
2022-09-18T00:25:02.200Z,1006.79
2022-09-18T00:26:02.102Z,1006.78
2022-09-18T00:27:02.711Z,1006.76
2022-09-18T00:28:02.685Z,1006.83
2022-09-18T00:29:02.633Z,1006.76
2022-09-18T00:30:02.214Z,1006.69
2022-09-18T00:31:02.848Z,1006.77
2022-09-18T00:32:01.634Z,1006.78
2022-09-18T00:33:01.747Z,1006.73
2022-09-18T00:34:01.526Z,1006.77
2022-09-18T00:35:01.407Z,1006.77
2022-09-18T00:36:01.505Z,1006.73
2022-09-18T00:37:01.962Z,1006.74
2022-09-18T00:38:02.138Z,1006.77
2022-09-18T00:39:02.392Z,1006.69
2022-09-18T00:40:02.154Z,1006.72
2022-09-18T00:41:02.168Z,1006.68
2022-09-18T00:42:01.648Z,1006.69
2022-09-18T00:43:01.804Z,1006.68
2022-09-18T00:44:01.864Z,1006.71
2022-09-18T00:45:01.768Z,1006.79
2022-09-18T00:46:01.747Z,1006.76
2022-09-18T00:47:01.837Z,1006.75
2022-09-18T00:48:01.661Z,1006.75
2022-09-18T00:49:01.429Z,1006.73
2022-09-18T00:50:01.966Z,1006.76
2022-09-18T00:51:01.601Z,1006.77
2022-09-18T00:52:02.118Z,1006.74
2022-09-18T00:53:01.923Z,1006.75
2022-09-18T00:54:02.581Z,1006.77
2022-09-18T00:55:02.028Z,1006.75
2022-09-18T00:56:02.077Z,1006.73
2022-09-18T00:57:02.732Z,1006.72
2022-09-18T00:58:02.624Z,1006.71
2022-09-18T00:59:02.581Z,1006.73
2022-09-18T01:00:02.310Z,1006.75
2022-09-18T01:01:02.463Z,1006.77
2022-09-18T01:02:02.966Z,1006.75
2022-09-18T01:03:03.091Z,1006.74
2022-09-18T01:04:03.119Z,1006.75
2022-09-18T01:05:02.880Z,1006.73
2022-09-18T01:06:03.084Z,1006.73
2022-09-18T01:07:02.649Z,1006.75
2022-09-18T01:08:02.736Z,1006.71
2022-09-18T01:09:02.533Z,1006.76
2022-09-18T01:10:02.161Z,1006.70
2022-09-18T01:11:02.768Z,1006.68
2022-09-18T01:12:03.140Z,1006.68
2022-09-18T01:13:02.833Z,1006.70
2022-09-18T01:14:03.209Z,1006.64
2022-09-18T01:15:02.922Z,1006.69
2022-09-18T01:16:02.812Z,1006.66
2022-09-18T01:17:02.453Z,1006.63
2022-09-18T01:18:02.320Z,1006.70
2022-09-18T01:19:02.092Z,1006.67
2022-09-18T01:20:02.738Z,1006.68
2022-09-18T01:21:02.364Z,1006.71
2022-09-18T01:22:02.838Z,1006.71
2022-09-18T01:23:02.714Z,1006.71
2022-09-18T01:24:02.654Z,1006.70
2022-09-18T01:25:03.176Z,1006.67
2022-09-18T01:26:02.959Z,1006.64
2022-09-18T01:27:02.500Z,1006.65
2022-09-18T01:28:02.355Z,1006.66
2022-09-18T01:29:02.104Z,1006.64
2022-09-18T01:30:02.679Z,1006.67
2022-09-18T01:31:02.339Z,1006.71
2022-09-18T01:32:02.901Z,1006.64
2022-09-18T01:33:03.002Z,1006.68
2022-09-18T01:34:03.103Z,1006.73
2022-09-18T01:35:09.825Z,1006.68
2022-09-18T01:36:03.140Z,1006.68
2022-09-18T01:37:03.307Z,1006.72
2022-09-18T01:38:03.148Z,1006.73
2022-09-18T01:39:03.567Z,1006.76
2022-09-18T01:40:03.595Z,1006.71
2022-09-18T01:41:02.998Z,1006.72
2022-09-18T01:42:03.191Z,1006.72
2022-09-18T01:43:03.047Z,1006.70
2022-09-18T01:44:03.521Z,1006.74
2022-09-18T01:45:03.343Z,1006.72
2022-09-18T01:46:03.823Z,1006.72
2022-09-18T01:47:03.309Z,1006.69
2022-09-18T01:48:03.395Z,1006.74
2022-09-18T01:49:03.302Z,1006.77
2022-09-18T01:50:03.242Z,1006.79
2022-09-18T01:51:03.158Z,1006.81
2022-09-18T01:52:03.256Z,1006.77
2022-09-18T01:53:02.970Z,1006.77
2022-09-18T01:54:03.386Z,1006.77
2022-09-18T01:55:03.331Z,1006.80
2022-09-18T01:56:03.012Z,1006.78
2022-09-18T01:57:02.784Z,1006.76
2022-09-18T01:58:02.333Z,1006.76
2022-09-18T01:59:02.215Z,1006.76
2022-09-18T02:00:02.414Z,1006.72
2022-09-18T02:01:02.273Z,1006.76
2022-09-18T02:02:02.957Z,1006.77
2022-09-18T02:03:02.692Z,1006.72
2022-09-18T02:04:02.367Z,1006.80
2022-09-18T02:05:02.838Z,1006.74
2022-09-18T02:06:02.627Z,1006.75
2022-09-18T02:07:02.765Z,1006.74
2022-09-18T02:08:03.295Z,1006.75
2022-09-18T02:09:03.290Z,1006.75
2022-09-18T02:10:02.823Z,1006.73
2022-09-18T02:11:03.291Z,1006.74
2022-09-18T02:12:03.607Z,1006.76
2022-09-18T02:13:03.157Z,1006.79
2022-09-18T02:14:03.087Z,1006.76
2022-09-18T02:15:03.677Z,1006.78
2022-09-18T02:16:03.331Z,1006.76
2022-09-18T02:17:03.029Z,1006.78
2022-09-18T02:18:02.485Z,1006.79
2022-09-18T02:19:03.067Z,1006.77
2022-09-18T02:20:02.679Z,1006.81
2022-09-18T02:21:02.958Z,1006.75
2022-09-18T02:22:03.531Z,1006.72
2022-09-18T02:23:03.380Z,1006.74
2022-09-18T02:24:03.289Z,1006.78
2022-09-18T02:25:03.015Z,1006.78
2022-09-18T02:26:03.544Z,1006.79
2022-09-18T02:27:02.803Z,1006.81
2022-09-18T02:28:02.216Z,1006.74
2022-09-18T02:29:02.700Z,1006.76
2022-09-18T02:30:02.537Z,1006.75
2022-09-18T02:31:02.964Z,1006.73
2022-09-18T02:32:03.022Z,1006.70
2022-09-18T02:33:02.938Z,1006.72
2022-09-18T02:34:02.840Z,1006.74
2022-09-18T02:35:02.983Z,1006.75
2022-09-18T02:36:03.078Z,1006.75
2022-09-18T02:37:03.535Z,1006.72
2022-09-18T02:38:03.060Z,1006.71
2022-09-18T02:39:03.490Z,1006.69
2022-09-18T02:40:03.350Z,1006.68
2022-09-18T02:41:03.254Z,1006.67
2022-09-18T02:42:03.660Z,1006.69
2022-09-18T02:43:03.174Z,1006.71
2022-09-18T02:44:03.132Z,1006.69
2022-09-18T02:45:03.509Z,1006.68
2022-09-18T02:46:03.443Z,1006.66
2022-09-18T02:47:02.412Z,1006.64
2022-09-18T02:48:02.885Z,1006.61
2022-09-18T02:49:02.743Z,1006.64
2022-09-18T02:50:02.651Z,1006.66
2022-09-18T02:51:02.780Z,1006.67
2022-09-18T02:52:02.863Z,1006.65
2022-09-18T02:53:03.247Z,1006.67
2022-09-18T02:54:03.410Z,1006.63
2022-09-18T02:55:02.870Z,1006.69
2022-09-18T02:56:03.528Z,1006.67
2022-09-18T02:57:03.439Z,1006.64
2022-09-18T02:58:03.239Z,1006.62
2022-09-18T02:59:03.120Z,1006.65
2022-09-18T03:00:03.644Z,1006.66
2022-09-18T03:01:03.613Z,1006.64
2022-09-18T03:02:03.115Z,1006.66
2022-09-18T03:03:02.752Z,1006.65
2022-09-18T03:04:02.599Z,1006.67
2022-09-18T03:05:03.124Z,1006.65
2022-09-18T03:06:02.640Z,1006.62
2022-09-18T03:07:03.735Z,1006.56
2022-09-18T03:08:03.506Z,1006.57
2022-09-18T03:09:03.459Z,1006.60
2022-09-18T03:10:03.326Z,1006.64
2022-09-18T03:11:03.419Z,1006.59
2022-09-18T03:12:03.512Z,1006.63
2022-09-18T03:13:03.290Z,1006.61
2022-09-18T03:14:03.804Z,1006.58
2022-09-18T03:15:03.389Z,1006.54
2022-09-18T03:16:03.663Z,1006.53
2022-09-18T03:17:02.641Z,1006.54
2022-09-18T03:18:02.793Z,1006.52
2022-09-18T03:19:02.654Z,1006.52
2022-09-18T03:20:02.957Z,1006.53
2022-09-18T03:21:02.736Z,1006.52
2022-09-18T03:22:03.311Z,1006.55
2022-09-18T03:23:03.789Z,1006.53
2022-09-18T03:24:03.442Z,1006.54
2022-09-18T03:25:03.327Z,1006.51
2022-09-18T03:26:03.685Z,1006.51
2022-09-18T03:27:03.390Z,1006.49
2022-09-18T03:28:03.937Z,1006.45
2022-09-18T03:29:04.002Z,1006.42
2022-09-18T03:30:03.946Z,1006.43
2022-09-18T03:31:03.593Z,1006.40
2022-09-18T03:32:03.245Z,1006.39
2022-09-18T03:33:03.278Z,1006.42
2022-09-18T03:34:03.210Z,1006.42
2022-09-18T03:35:03.226Z,1006.42
2022-09-18T03:36:03.205Z,1006.39
2022-09-18T03:37:03.846Z,1006.43
2022-09-18T03:38:03.706Z,1006.42
2022-09-18T03:39:03.482Z,1006.38
2022-09-18T03:40:04.016Z,1006.38
2022-09-18T03:41:03.659Z,1006.42
2022-09-18T03:42:02.930Z,1006.38
2022-09-18T03:43:03.544Z,1006.44
2022-09-18T03:44:03.258Z,1006.45
2022-09-18T03:45:03.078Z,1006.44
2022-09-18T03:46:02.989Z,1006.42
2022-09-18T03:47:03.600Z,1006.41
2022-09-18T03:48:03.429Z,1006.40
2022-09-18T03:49:03.609Z,1006.37
2022-09-18T03:50:03.480Z,1006.41
2022-09-18T03:51:04.001Z,1006.43
2022-09-18T03:52:03.316Z,1006.43
2022-09-18T03:53:03.166Z,1006.43
2022-09-18T03:54:03.638Z,1006.40
2022-09-18T03:55:03.218Z,1006.40
2022-09-18T03:56:03.270Z,1006.38
2022-09-18T03:57:03.551Z,1006.41
2022-09-18T03:58:03.522Z,1006.48
2022-09-18T03:59:03.327Z,1006.48
2022-09-18T04:00:03.406Z,1006.48
2022-09-18T04:01:03.484Z,1006.48
2022-09-18T04:02:03.028Z,1006.47
2022-09-18T04:03:03.058Z,1006.48
2022-09-18T04:04:03.011Z,1006.49
2022-09-18T04:05:02.867Z,1006.49
2022-09-18T04:06:03.112Z,1006.52
2022-09-18T04:07:02.737Z,1006.50
2022-09-18T04:08:02.312Z,1006.48
2022-09-18T04:09:02.766Z,1006.55
2022-09-18T04:10:02.357Z,1006.54
2022-09-18T04:11:02.723Z,1006.52
2022-09-18T04:12:03.253Z,1006.53
2022-09-18T04:13:03.118Z,1006.56
2022-09-18T04:14:02.892Z,1006.58
2022-09-18T04:15:03.474Z,1006.55
2022-09-18T04:16:03.175Z,1006.58
2022-09-18T04:17:03.287Z,1006.51
2022-09-18T04:18:03.191Z,1006.50
2022-09-18T04:19:03.611Z,1006.50
2022-09-18T04:20:03.497Z,1006.56
2022-09-18T04:21:03.140Z,1006.56
2022-09-18T04:22:02.588Z,1006.57
2022-09-18T04:23:02.243Z,1006.60
2022-09-18T04:24:02.274Z,1006.61
2022-09-18T04:25:02.609Z,1006.55
2022-09-18T04:26:02.494Z,1006.59
2022-09-18T04:27:03.021Z,1006.62
2022-09-18T04:28:02.893Z,1006.61
2022-09-18T04:29:02.754Z,1006.58
2022-09-18T04:30:02.575Z,1006.57
2022-09-18T04:31:03.128Z,1006.60
2022-09-18T04:32:03.412Z,1006.62
2022-09-18T04:33:03.259Z,1006.62
2022-09-18T04:34:03.005Z,1006.65
2022-09-18T04:35:02.875Z,1006.63
2022-09-18T04:36:03.188Z,1006.65
2022-09-18T04:37:04.879Z,1006.65
2022-09-18T04:38:02.913Z,1006.59
2022-09-18T04:39:02.417Z,1006.68
2022-09-18T04:40:02.419Z,1006.62
2022-09-18T04:41:02.935Z,1006.58
2022-09-18T04:42:02.670Z,1006.59
2022-09-18T04:43:03.277Z,1006.59
2022-09-18T04:44:02.913Z,1006.64
2022-09-18T04:45:03.324Z,1006.60
2022-09-18T04:46:02.867Z,1006.59
2022-09-18T04:47:03.566Z,1006.60
2022-09-18T04:48:03.263Z,1006.61
2022-09-18T04:49:03.272Z,1006.64
2022-09-18T04:50:03.032Z,1006.61
2022-09-18T04:51:03.146Z,1006.63
2022-09-18T04:52:03.634Z,1006.56
2022-09-18T04:53:03.213Z,1006.58
2022-09-18T04:54:03.792Z,1006.55
2022-09-18T04:55:03.400Z,1006.56
2022-09-18T04:56:03.192Z,1006.55
2022-09-18T04:57:02.532Z,1006.54
2022-09-18T04:58:02.297Z,1006.50
2022-09-18T04:59:02.711Z,1006.53
2022-09-18T05:00:02.620Z,1006.48
2022-09-18T05:01:02.751Z,1006.50
2022-09-18T05:02:03.174Z,1006.54
2022-09-18T05:03:02.719Z,1006.52
2022-09-18T05:04:02.676Z,1006.48
2022-09-18T05:05:03.001Z,1006.42
2022-09-18T05:06:02.859Z,1006.41
2022-09-18T05:07:03.306Z,1006.39
2022-09-18T05:08:02.926Z,1006.36
2022-09-18T05:09:03.093Z,1006.35
2022-09-18T05:10:03.023Z,1006.39
2022-09-18T05:11:02.769Z,1006.41
2022-09-18T05:12:03.374Z,1006.45
2022-09-18T05:13:02.877Z,1006.41
2022-09-18T05:14:03.417Z,1006.42
2022-09-18T05:15:03.045Z,1006.42
2022-09-18T05:16:03.281Z,1006.40
2022-09-18T05:17:02.695Z,1006.41
2022-09-18T05:18:02.353Z,1006.38
2022-09-18T05:19:02.238Z,1006.47
2022-09-18T05:20:02.138Z,1006.43
2022-09-18T05:21:02.050Z,1006.49
2022-09-18T05:22:02.612Z,1006.45
2022-09-18T05:23:02.566Z,1006.43
2022-09-18T05:24:02.514Z,1006.47
2022-09-18T05:25:02.495Z,1006.47
2022-09-18T05:26:02.994Z,1006.52
2022-09-18T05:27:03.149Z,1006.52
2022-09-18T05:28:03.059Z,1006.48
2022-09-18T05:29:03.029Z,1006.45
2022-09-18T05:30:02.708Z,1006.40
2022-09-18T05:31:02.717Z,1006.44
2022-09-18T05:32:03.064Z,1006.41
2022-09-18T05:33:02.861Z,1006.39
2022-09-18T05:34:02.770Z,1006.41
2022-09-18T05:35:02.969Z,1006.40
2022-09-18T05:36:03.191Z,1006.40
2022-09-18T05:37:02.021Z,1006.44
2022-09-18T05:38:02.529Z,1006.42
2022-09-18T05:39:02.688Z,1006.40
2022-09-18T05:40:02.640Z,1006.39
2022-09-18T05:41:02.244Z,1006.39
2022-09-18T05:42:02.469Z,1006.41
2022-09-18T05:43:02.300Z,1006.34
2022-09-18T05:44:02.474Z,1006.34
2022-09-18T05:45:02.432Z,1006.32
2022-09-18T05:46:02.336Z,1006.36
2022-09-18T05:47:02.254Z,1006.31
2022-09-18T05:48:02.417Z,1006.35
2022-09-18T05:49:02.310Z,1006.36
2022-09-18T05:50:02.838Z,1006.35
2022-09-18T05:51:02.408Z,1006.33
2022-09-18T05:52:02.499Z,1006.37
2022-09-18T05:53:02.404Z,1006.37
2022-09-18T05:54:02.651Z,1006.39
2022-09-18T05:55:02.497Z,1006.42
2022-09-18T05:56:02.399Z,1006.43
2022-09-18T05:57:02.094Z,1006.47
2022-09-18T05:58:01.987Z,1006.45
2022-09-18T05:59:02.007Z,1006.43
2022-09-18T06:00:02.303Z,1006.45
2022-09-18T06:01:02.567Z,1006.45
2022-09-18T06:02:02.789Z,1006.45
2022-09-18T06:03:02.843Z,1006.43
2022-09-18T06:04:02.701Z,1006.43
2022-09-18T06:05:02.722Z,1006.42
2022-09-18T06:06:03.074Z,1006.46
2022-09-18T06:07:03.517Z,1006.47
2022-09-18T06:08:03.293Z,1006.49
2022-09-18T06:09:03.429Z,1006.48
2022-09-18T06:10:03.469Z,1006.48
2022-09-18T06:11:03.517Z,1006.47
2022-09-18T06:12:02.191Z,1006.46
2022-09-18T06:13:02.189Z,1006.50
2022-09-18T06:14:02.170Z,1006.48
2022-09-18T06:15:02.375Z,1006.49
2022-09-18T06:16:02.415Z,1006.49
2022-09-18T06:17:02.718Z,1006.48
2022-09-18T06:18:02.605Z,1006.48
2022-09-18T06:19:02.676Z,1006.53
2022-09-18T06:20:02.656Z,1006.51
2022-09-18T06:21:02.792Z,1006.49
2022-09-18T06:22:02.606Z,1006.50
2022-09-18T06:23:02.606Z,1006.49
2022-09-18T06:24:02.778Z,1006.44
2022-09-18T06:25:02.630Z,1006.46
2022-09-18T06:26:02.738Z,1006.41
2022-09-18T06:27:02.756Z,1006.35
2022-09-18T06:28:02.617Z,1006.41
2022-09-18T06:29:03.168Z,1006.45
2022-09-18T06:30:03.195Z,1006.47
2022-09-18T06:31:03.114Z,1006.48
2022-09-18T06:32:03.081Z,1006.54
2022-09-18T06:33:03.051Z,1006.54
2022-09-18T06:34:03.338Z,1006.53
2022-09-18T06:35:03.438Z,1006.51
2022-09-18T06:36:02.922Z,1006.51
2022-09-18T06:37:02.681Z,1006.51
2022-09-18T06:38:02.635Z,1006.51
2022-09-18T06:39:02.850Z,1006.49
2022-09-18T06:40:03.001Z,1006.55
2022-09-18T06:41:02.950Z,1006.56
2022-09-18T06:42:02.950Z,1006.56
2022-09-18T06:43:02.807Z,1006.58
2022-09-18T06:44:02.979Z,1006.54
2022-09-18T06:45:02.876Z,1006.62
2022-09-18T06:46:02.850Z,1006.60
2022-09-18T06:47:02.584Z,1006.60
2022-09-18T06:48:02.874Z,1006.64
2022-09-18T06:49:02.928Z,1006.68
2022-09-18T06:50:02.686Z,1006.67
2022-09-18T06:51:02.640Z,1006.70
2022-09-18T06:52:02.621Z,1006.67
2022-09-18T06:53:02.843Z,1006.71
2022-09-18T06:54:03.106Z,1006.67
2022-09-18T06:55:02.858Z,1006.67
2022-09-18T06:56:02.732Z,1006.67
2022-09-18T06:57:02.920Z,1006.64
2022-09-18T06:58:03.165Z,1006.66
2022-09-18T06:59:02.780Z,1006.61
2022-09-18T07:00:04.864Z,1006.62
2022-09-18T07:01:02.995Z,1006.59
2022-09-18T07:02:02.461Z,1006.65
2022-09-18T07:03:02.494Z,1006.63
2022-09-18T07:04:02.419Z,1006.62
2022-09-18T07:05:02.453Z,1006.61
2022-09-18T07:06:02.219Z,1006.57
2022-09-18T07:07:02.248Z,1006.58
2022-09-18T07:08:02.299Z,1006.61
2022-09-18T07:09:02.364Z,1006.63
2022-09-18T07:10:06.958Z,1006.63
2022-09-18T07:11:02.336Z,1006.61
2022-09-18T07:12:01.971Z,1006.60
2022-09-18T07:13:01.707Z,1006.60
2022-09-18T07:14:01.496Z,1006.63
2022-09-18T07:15:02.028Z,1006.63
2022-09-18T07:16:01.994Z,1006.60
2022-09-18T07:17:02.494Z,1006.59
2022-09-18T07:18:02.446Z,1006.54
2022-09-18T07:19:02.493Z,1006.54
2022-09-18T07:20:02.484Z,1006.53
2022-09-18T07:21:02.566Z,1006.55
2022-09-18T07:22:02.052Z,1006.51
2022-09-18T07:23:01.731Z,1006.49
2022-09-18T07:24:01.715Z,1006.49
2022-09-18T07:25:02.237Z,1006.47
2022-09-18T07:26:01.861Z,1006.47
2022-09-18T07:27:02.570Z,1006.49
2022-09-18T07:28:02.695Z,1006.49
2022-09-18T07:29:05.819Z,1006.48
2022-09-18T07:30:02.686Z,1006.46
2022-09-18T07:31:02.400Z,1006.45
2022-09-18T07:32:01.879Z,1006.44
2022-09-18T07:33:01.941Z,1006.43
2022-09-18T07:34:02.275Z,1006.41
2022-09-18T07:35:01.934Z,1006.44
2022-09-18T07:36:01.840Z,1006.49
2022-09-18T07:37:02.488Z,1006.47
2022-09-18T07:38:02.498Z,1006.49
2022-09-18T07:39:02.171Z,1006.52
2022-09-18T07:40:02.218Z,1006.49
2022-09-18T07:41:02.184Z,1006.46
2022-09-18T07:42:08.229Z,1006.49
2022-09-18T07:43:02.554Z,1006.52
2022-09-18T07:44:02.726Z,1006.55
2022-09-18T07:45:02.718Z,1006.55
2022-09-18T07:46:02.902Z,1006.52
2022-09-18T07:47:02.605Z,1006.52
2022-09-18T07:48:02.554Z,1006.53
2022-09-18T07:49:02.409Z,1006.54
2022-09-18T07:50:02.230Z,1006.49
2022-09-18T07:51:02.426Z,1006.51
2022-09-18T07:52:02.915Z,1006.49
2022-09-18T07:53:02.375Z,1006.44
2022-09-18T07:54:02.577Z,1006.45
2022-09-18T07:55:02.440Z,1006.47
2022-09-18T07:56:02.361Z,1006.53
2022-09-18T07:57:03.021Z,1006.45
2022-09-18T07:58:02.798Z,1006.44
2022-09-18T07:59:02.826Z,1006.49
2022-09-18T08:00:03.062Z,1006.54
2022-09-18T08:01:02.742Z,1006.52
2022-09-18T08:02:03.073Z,1006.49
2022-09-18T08:03:02.886Z,1006.47
2022-09-18T08:04:03.192Z,1006.50
2022-09-18T08:05:03.172Z,1006.47
2022-09-18T08:06:03.303Z,1006.45
2022-09-18T08:07:02.979Z,1006.45
2022-09-18T08:08:02.844Z,1006.48
2022-09-18T08:09:02.919Z,1006.43
2022-09-18T08:10:02.757Z,1006.49
2022-09-18T08:11:03.054Z,1006.38
2022-09-18T08:12:03.226Z,1006.42
2022-09-18T08:13:02.991Z,1006.36
2022-09-18T08:14:02.962Z,1006.34
2022-09-18T08:15:02.974Z,1006.44
2022-09-18T08:16:02.909Z,1006.32
2022-09-18T08:17:02.484Z,1006.45
2022-09-18T08:18:02.280Z,1006.46
2022-09-18T08:19:02.317Z,1006.43
2022-09-18T08:20:01.959Z,1006.44
2022-09-18T08:21:02.267Z,1006.44
2022-09-18T08:22:03.192Z,1006.55
2022-09-18T08:23:02.697Z,1006.51
2022-09-18T08:24:02.668Z,1006.53
2022-09-18T08:25:02.467Z,1006.56
2022-09-18T08:26:02.890Z,1006.55
2022-09-18T08:27:01.858Z,1006.58
2022-09-18T08:28:02.197Z,1006.57
2022-09-18T08:29:02.733Z,1006.56
2022-09-18T08:30:01.880Z,1006.57
2022-09-18T08:31:02.570Z,1006.50
2022-09-18T08:32:06.515Z,1006.55
2022-09-18T08:33:02.987Z,1006.55
2022-09-18T08:34:02.745Z,1006.53
2022-09-18T08:35:02.813Z,1006.52
2022-09-18T08:36:02.671Z,1006.51
2022-09-18T08:37:02.873Z,1006.46
2022-09-18T08:38:02.898Z,1006.52
2022-09-18T08:39:03.457Z,1006.47
2022-09-18T08:40:03.567Z,1006.50
2022-09-18T08:41:03.329Z,1006.43
2022-09-18T08:42:02.639Z,1006.60
2022-09-18T08:43:02.333Z,1006.58
2022-09-18T08:44:02.173Z,1006.58
2022-09-18T08:45:02.466Z,1006.58
2022-09-18T08:46:02.342Z,1006.60
2022-09-18T08:47:02.301Z,1006.51
2022-09-18T08:48:02.470Z,1006.49
2022-09-18T08:49:02.634Z,1006.49
2022-09-18T08:50:02.487Z,1006.50
2022-09-18T08:51:02.601Z,1006.58
2022-09-18T08:52:02.880Z,1006.50
2022-09-18T08:53:02.817Z,1006.51
2022-09-18T08:54:02.952Z,1006.56
2022-09-18T08:55:02.976Z,1006.53
2022-09-18T08:56:03.279Z,1006.51
2022-09-18T08:57:02.297Z,1006.49
2022-09-18T08:58:02.773Z,1006.50
2022-09-18T08:59:02.374Z,1006.51
2022-09-18T09:00:02.716Z,1006.58
2022-09-18T09:01:02.515Z,1006.56
2022-09-18T09:02:02.388Z,1006.62
2022-09-18T09:03:02.376Z,1006.58
2022-09-18T09:04:02.504Z,1006.66
2022-09-18T09:05:02.479Z,1006.57
2022-09-18T09:06:02.472Z,1006.56
2022-09-18T09:07:02.707Z,1006.56
2022-09-18T09:08:02.784Z,1006.58
2022-09-18T09:09:02.626Z,1006.53
2022-09-18T09:10:02.657Z,1006.52
2022-09-18T09:11:02.695Z,1006.44
2022-09-18T09:12:02.972Z,1006.43
2022-09-18T09:13:02.853Z,1006.48
2022-09-18T09:14:03.013Z,1006.48
2022-09-18T09:15:02.922Z,1006.43
2022-09-18T09:16:03.802Z,1006.44
2022-09-18T09:17:02.170Z,1006.43
2022-09-18T09:18:02.486Z,1006.43
2022-09-18T09:19:02.574Z,1006.44
2022-09-18T09:20:02.545Z,1006.36
2022-09-18T09:21:02.597Z,1006.44
2022-09-18T09:22:02.417Z,1006.46
2022-09-18T09:23:02.410Z,1006.52
2022-09-18T09:24:02.238Z,1006.48
2022-09-18T09:25:02.385Z,1006.51
2022-09-18T09:26:02.427Z,1006.52
2022-09-18T09:27:02.463Z,1006.50
2022-09-18T09:28:02.610Z,1006.51
2022-09-18T09:29:02.498Z,1006.56
2022-09-18T09:30:02.497Z,1006.55
2022-09-18T09:31:02.517Z,1006.56
2022-09-18T09:32:03.025Z,1006.57
2022-09-18T09:33:03.016Z,1006.55
2022-09-18T09:34:03.107Z,1006.53
2022-09-18T09:35:03.090Z,1006.62
2022-09-18T09:36:03.388Z,1006.55
2022-09-18T09:37:02.488Z,1006.51
2022-09-18T09:38:02.537Z,1006.54
2022-09-18T09:39:02.838Z,1006.55
2022-09-18T09:40:02.437Z,1006.54
2022-09-18T09:41:02.520Z,1006.46
2022-09-18T09:42:03.137Z,1006.45
2022-09-18T09:43:03.079Z,1006.40
2022-09-18T09:44:02.968Z,1006.32
2022-09-18T09:45:03.505Z,1006.38
2022-09-18T09:46:03.186Z,1006.36
2022-09-18T09:47:02.956Z,1006.26
2022-09-18T09:48:02.919Z,1006.26
2022-09-18T09:49:02.921Z,1006.29
2022-09-18T09:50:02.957Z,1006.31
2022-09-18T09:51:02.989Z,1006.27
2022-09-18T09:52:08.755Z,1006.26
2022-09-18T09:53:03.150Z,1006.26
2022-09-18T09:54:02.901Z,1006.26
2022-09-18T09:55:02.876Z,1006.29
2022-09-18T09:56:02.812Z,1006.31
2022-09-18T09:57:02.607Z,1006.34
2022-09-18T09:58:02.799Z,1006.30
2022-09-18T09:59:07.651Z,1006.32
2022-09-18T10:00:02.336Z,1006.34
2022-09-18T10:01:02.444Z,1006.42
2022-09-18T10:02:01.016Z,1006.38
2022-09-18T10:03:00.867Z,1006.39
2022-09-18T10:04:00.463Z,1006.39
2022-09-18T10:05:01.046Z,1006.35
2022-09-18T10:06:00.833Z,1006.33
2022-09-18T10:06:56.880Z,1006.46
2022-09-18T10:07:55.198Z,1006.37
2022-09-18T10:08:55.266Z,1006.38
2022-09-18T10:09:55.205Z,1006.35
2022-09-18T10:10:55.524Z,1006.31
2022-09-18T10:11:57.380Z,1006.33
2022-09-18T10:11:58.829Z,1006.33
2022-09-18T10:12:04.028Z,1006.33
2022-09-18T10:13:03.976Z,1006.34
2022-09-18T10:14:03.973Z,1006.35
2022-09-18T10:15:04.252Z,1006.31
2022-09-18T10:16:04.319Z,1006.33
2022-09-18T10:17:04.405Z,1006.33
2022-09-18T10:18:04.504Z,1006.32
2022-09-18T10:19:04.688Z,1006.35
2022-09-18T10:20:04.370Z,1006.36
2022-09-18T10:21:04.393Z,1006.34
2022-09-18T10:22:04.088Z,1006.31
2022-09-18T10:23:03.855Z,1006.35
2022-09-18T10:24:03.827Z,1006.35
2022-09-18T10:25:03.819Z,1006.38
2022-09-18T10:26:03.772Z,1006.32
2022-09-18T10:27:04.679Z,1006.33
2022-09-18T10:28:04.633Z,1006.29
2022-09-18T10:29:04.471Z,1006.30
2022-09-18T10:30:04.526Z,1006.30
2022-09-18T10:31:04.674Z,1006.29
2022-09-18T10:32:05.010Z,1006.26
2022-09-18T10:33:04.998Z,1006.24
2022-09-18T10:34:04.650Z,1006.20
2022-09-18T10:35:04.777Z,1006.19
2022-09-18T10:36:05.117Z,1006.25
2022-09-18T10:37:05.030Z,1006.19
2022-09-18T10:38:04.954Z,1006.17
2022-09-18T10:39:05.073Z,1006.17
2022-09-18T10:40:05.278Z,1006.14
2022-09-18T10:41:04.890Z,1006.17
2022-09-18T10:42:04.470Z,1006.10
2022-09-18T10:43:04.174Z,1006.16
2022-09-18T10:44:04.759Z,1006.15
2022-09-18T10:45:04.541Z,1006.17
2022-09-18T10:46:04.429Z,1006.17
2022-09-18T10:47:04.409Z,1006.19
2022-09-18T10:48:04.168Z,1006.16
2022-09-18T10:49:04.046Z,1006.23
2022-09-18T10:50:04.235Z,1006.26
2022-09-18T10:51:03.966Z,1006.27
2022-09-18T10:52:04.681Z,1006.32
2022-09-18T10:53:04.816Z,1006.25
2022-09-18T10:54:04.253Z,1006.27
2022-09-18T10:55:04.292Z,1006.29
2022-09-18T10:56:04.493Z,1006.29
2022-09-18T10:57:05.466Z,1006.29
2022-09-18T10:58:05.231Z,1006.21
2022-09-18T10:59:05.238Z,1006.28
2022-09-18T11:00:05.276Z,1006.26
2022-09-18T11:01:05.274Z,1006.24
2022-09-18T11:02:04.810Z,1006.26
2022-09-18T11:03:04.562Z,1006.21
2022-09-18T11:04:04.326Z,1006.23
2022-09-18T11:05:04.127Z,1006.21
2022-09-18T11:06:04.085Z,1006.25
2022-09-18T11:07:02.406Z,1006.16
2022-09-18T11:07:09.569Z,1006.19
2022-09-18T11:08:09.531Z,1006.19
2022-09-18T11:09:09.477Z,1006.19
2022-09-18T11:10:09.830Z,1006.19
2022-09-18T11:11:09.837Z,1006.21
2022-09-18T11:12:02.891Z,1006.21
2022-09-18T11:13:01.155Z,1006.16
2022-09-18T11:14:01.214Z,1006.18
2022-09-18T11:15:01.187Z,1006.13
2022-09-18T11:16:01.150Z,1006.12
2022-09-18T11:17:01.361Z,1006.11
2022-09-18T11:17:03.714Z,1006.13
2022-09-18T11:18:03.039Z,1006.10
2022-09-18T11:19:07.161Z,1006.24
2022-09-18T11:20:03.170Z,1006.24
2022-09-18T11:21:03.214Z,1006.23
2022-09-18T11:22:03.060Z,1006.26
2022-09-18T11:23:03.074Z,1006.23
2022-09-18T11:24:03.530Z,1006.17
2022-09-18T11:25:03.179Z,1006.19
2022-09-18T11:26:03.810Z,1006.15
2022-09-18T11:27:03.483Z,1006.18
2022-09-18T11:28:03.700Z,1006.18
2022-09-18T11:29:03.883Z,1006.18
2022-09-18T11:30:04.092Z,1006.18
2022-09-18T11:31:03.923Z,1006.14
2022-09-18T11:32:03.955Z,1006.12
2022-09-18T11:33:03.157Z,1006.18
2022-09-18T11:34:06.370Z,1006.16
2022-09-18T11:35:03.003Z,1006.16
2022-09-18T11:36:03.049Z,1006.17
2022-09-18T11:37:03.433Z,1006.12
2022-09-18T11:38:04.102Z,1006.19
2022-09-18T11:39:03.887Z,1006.15
2022-09-18T11:40:04.037Z,1006.21
2022-09-18T11:41:04.148Z,1006.13
2022-09-18T11:42:04.129Z,1006.25
2022-09-18T11:43:03.737Z,1006.28
2022-09-18T11:44:03.531Z,1006.26
2022-09-18T11:45:03.740Z,1006.30
2022-09-18T11:46:03.433Z,1006.22
2022-09-18T11:47:03.308Z,1006.20
2022-09-18T11:48:03.740Z,1006.14
2022-09-18T11:49:04.930Z,1006.17
2022-09-18T11:50:04.355Z,1006.16
2022-09-18T11:51:04.317Z,1006.17
2022-09-18T11:52:03.845Z,1006.14
2022-09-18T11:53:03.588Z,1006.13
2022-09-18T11:54:03.847Z,1006.19
2022-09-18T11:55:03.679Z,1006.14
2022-09-18T11:56:03.732Z,1006.17
2022-09-18T11:57:03.827Z,1006.17
2022-09-18T11:58:03.942Z,1006.13
2022-09-18T11:59:03.796Z,1006.14
2022-09-18T12:00:03.665Z,1006.07
2022-09-18T12:01:05.216Z,1006.11